Oakland, CA (94605)

2:14 PM PST on December 21, 2014 (GMT -0800)
Eastmont Hills | Change Station
CLOSE
Current Station
Personal Weather Station
Location: Oakland, CA
Elevation: 423 ft
Nearby Weather Stations
Active Advisory: Coastal Flood Advisory

Elev 423 ft 37.77 °N, 122.16 °W | Updated 43 seconds ago

Overcast
Overcast
63.1 °F
Feels Like 63.1 °F
N
4.0
Wind Variable Wind from WSW
Gusts 7.0 mph

Today
High -- | Low -- °F
--% Chance of Precip.
Yesterday
High -- | Low -- °F
Precip. -- in
7:20 AM 4:53 PM
Waning Crescent, 0% visible
Pressure 30.27 in
Visibility 10.0 miles
Clouds Few 1000 ft
Scattered Clouds 6500 ft
Mostly Cloudy 22000 ft
Dew Point 59 °F
Humidity 86%
Rainfall 0.22 in
Snow Depth Not available.
UV 1 out of 12
Pollen 4.00 out of 12
Air Quality Not available.
Flu Activity Not available.
METAR KOAK 212153Z 29008KT 10SM FEW010 SCT065 BKN220 17/14 A3027 RMK AO2 SLP250 T01720144

More Conditions Fewer Conditions

Pressure 30.27 in
Visibility 10.0 miles
Clouds Few 1000 ft
Scattered Clouds 6500 ft
Mostly Cloudy 22000 ft
Dew Point 59 °F
Humidity 86%
Rainfall 0.22 in
Snow Depth Not available.
UV 1 out of 12
Pollen 4.00 out of 12
Air Quality Not available.
Flu Activity Not available.
METAR KOAK 212153Z 29008KT 10SM FEW010 SCT065 BKN220 17/14 A3027 RMK AO2 SLP250 T01720144

More Conditions Fewer Conditions

10-Day Weather Forecast

Almanac

Astronomy

Dec. 21, 2014 Rise Set
Actual Time
Civil Twilight
Nautical Twilight
Astronomical Twilight
Moon
Length of Visible Light
Length of Day
Tomorrow will be .
, % of the Moon is Illuminated

Today's Extremes

State Highs State Lows

Community

WunderPhotos

Upload Photos

1,779,498 photos uploaded!

WunderBlogs® & News

Nearby

Air Quality

  Air Quality AQ Index Pollutant
Not available.

Snow Depth

Station Depth Elevation

Earthquake Activity

City Distance Mag. Time & Date
Minimum magnitude displayed is 2.5.

Coastal Water Temperatures

Place Temperature

Nearby Weather Stations